Time;durP1;ratioP1;P1;durP2;ratioP2;P2;SDS_P1;SDS_P2;PMS_P1;PMS_P2;Temp;Humidity;BMP_temperature;BMP_pressure;BME280_temperature;BME280_humidity;BME280_pressure;Samples;Min_cycle;Max_cycle;Signal;HPM_P1;HPM_P2
2023/04/15 00:02:12;;;;;;;1.90;0.80;;;;;;;;;;8341032;28;20035;-73
2023/04/15 00:06:13;;;;;;;3.63;1.15;;;;;;;;;;8361111;28;20492;-73
2023/04/15 00:10:13;;;;;;;3.70;1.65;;;;;;;;;;8362786;28;20504;-73
2023/04/15 00:14:15;;;;;;;1.98;0.80;;;;;;;;;;8360172;28;20060;-73
2023/04/15 00:18:15;;;;;;;2.88;1.10;;;;;;;;;;8357858;28;20067;-73
2023/04/15 00:22:16;;;;;;;1.35;0.90;;;;;;;;;;8360270;28;20028;-73
2023/04/15 00:26:18;;;;;;;1.65;1.20;;;;;;;;;;8349445;28;20590;-73
2023/04/15 00:30:18;;;;;;;3.13;1.20;;;;;;;;;;8362026;28;20035;-73
2023/04/15 00:34:19;;;;;;;3.47;1.20;;;;;;;;;;8363742;28;20564;-73
2023/04/15 00:38:19;;;;;;;1.67;0.90;;;;;;;;;;8339288;28;20274;-73
2023/04/15 00:42:20;;;;;;;2.95;1.45;;;;;;;;;;8340858;28;20107;-73
2023/04/15 00:46:21;;;;;;;2.17;0.77;;;;;;;;;;8360459;28;20373;-73
2023/04/15 00:50:21;;;;;;;3.83;1.10;;;;;;;;;;8339181;28;20058;-73
2023/04/15 00:54:22;;;;;;;3.45;1.30;;;;;;;;;;8361175;28;20585;-73
2023/04/15 00:58:22;;;;;;;3.65;1.40;;;;;;;;;;8359781;28;20035;-73
2023/04/15 01:02:22;;;;;;;2.92;1.10;;;;;;;;;;8361344;28;20036;-71
2023/04/15 01:06:23;;;;;;;2.95;1.13;;;;;;;;;;8361638;28;20029;-71
2023/04/15 01:10:23;;;;;;;3.65;1.10;;;;;;;;;;8365055;28;20745;-71
2023/04/15 01:14:24;;;;;;;6.00;1.30;;;;;;;;;;8345926;28;20934;-71
2023/04/15 01:18:24;;;;;;;1.92;0.93;;;;;;;;;;8359257;28;20325;-71
2023/04/15 01:22:25;;;;;;;2.92;1.20;;;;;;;;;;8357336;28;20025;-71
2023/04/15 01:26:26;;;;;;;5.72;1.40;;;;;;;;;;8365208;28;20464;-71
2023/04/15 01:30:26;;;;;;;6.43;1.65;;;;;;;;;;8346727;28;20616;-71
2023/04/15 01:34:26;;;;;;;2.27;1.10;;;;;;;;;;8353459;28;20024;-71
2023/04/15 01:38:28;;;;;;;2.55;1.25;;;;;;;;;;8372185;28;20314;-71
2023/04/15 01:42:28;;;;;;;2.38;1.23;;;;;;;;;;8374891;28;20027;-71
2023/04/15 01:46:29;;;;;;;2.67;1.20;;;;;;;;;;8370154;28;21109;-72
2023/04/15 01:50:31;;;;;;;2.90;1.02;;;;;;;;;;8370912;28;20030;-72
2023/04/15 01:54:31;;;;;;;3.10;1.17;;;;;;;;;;8352072;28;20119;-71
2023/04/15 01:58:31;;;;;;;3.72;1.10;;;;;;;;;;8367029;28;20508;-71
2023/04/15 02:02:31;;;;;;;2.22;1.15;;;;;;;;;;8375196;28;20055;-72
2023/04/15 02:06:32;;;;;;;3.97;1.30;;;;;;;;;;8370890;28;20037;-71
2023/04/15 02:10:32;;;;;;;2.35;1.00;;;;;;;;;;8372354;28;20682;-72
2023/04/15 02:14:32;;;;;;;3.38;1.20;;;;;;;;;;8352710;28;20028;-72
2023/04/15 02:18:32;;;;;;;1.90;1.23;;;;;;;;;;8368400;28;20044;-73
2023/04/15 02:22:33;;;;;;;3.90;1.30;;;;;;;;;;8368913;28;20094;-72
2023/04/15 02:26:33;;;;;;;2.92;1.10;;;;;;;;;;8370157;28;20067;-72
2023/04/15 02:30:33;;;;;;;1.70;1.10;;;;;;;;;;8370316;28;20048;-73
2023/04/15 02:34:33;;;;;;;2.47;1.10;;;;;;;;;;8371604;28;20028;-72
2023/04/15 02:38:33;;;;;;;1.77;1.00;;;;;;;;;;8371861;28;20541;-72
2023/04/15 02:42:34;;;;;;;3.20;1.10;;;;;;;;;;8350508;28;20016;-72
2023/04/15 02:46:34;;;;;;;3.03;1.17;;;;;;;;;;8351746;28;20279;-72
2023/04/15 02:50:35;;;;;;;3.22;0.95;;;;;;;;;;8365456;28;20031;-72
2023/04/15 02:54:35;;;;;;;4.90;1.30;;;;;;;;;;8364943;28;20017;-72
2023/04/15 02:58:36;;;;;;;7.72;1.27;;;;;;;;;;8366111;28;20025;-73
2023/04/15 03:02:36;;;;;;;3.42;1.35;;;;;;;;;;8362877;28;20028;-73
2023/04/15 03:06:37;;;;;;;3.95;1.33;;;;;;;;;;8362852;28;21042;-72
2023/04/15 03:10:37;;;;;;;3.92;1.17;;;;;;;;;;8362453;28;20035;-73
2023/04/15 03:14:37;;;;;;;3.65;1.33;;;;;;;;;;8360402;28;20615;-72
2023/04/15 03:18:37;;;;;;;1.90;1.23;;;;;;;;;;8359488;28;20032;-73
2023/04/15 03:22:37;;;;;;;2.50;1.20;;;;;;;;;;8359597;28;20221;-72
2023/04/15 03:26:38;;;;;;;2.20;1.40;;;;;;;;;;8356288;28;20052;-72
2023/04/15 03:30:38;;;;;;;1.63;1.23;;;;;;;;;;8337063;28;21025;-72
2023/04/15 03:34:38;;;;;;;3.77;1.43;;;;;;;;;;8341831;28;20133;-72
2023/04/15 03:38:38;;;;;;;3.75;1.80;;;;;;;;;;8360932;28;20263;-73
2023/04/15 03:42:38;;;;;;;3.30;1.40;;;;;;;;;;8360497;28;20020;-72
2023/04/15 03:46:38;;;;;;;5.75;1.85;;;;;;;;;;8361562;28;20032;-72
2023/04/15 03:50:39;;;;;;;3.80;1.73;;;;;;;;;;8360964;28;20178;-73
2023/04/15 03:54:39;;;;;;;2.63;1.77;;;;;;;;;;8361428;28;20404;-72
2023/04/15 03:58:39;;;;;;;4.57;1.90;;;;;;;;;;8360716;28;20441;-72
2023/04/15 04:02:39;;;;;;;2.55;1.33;;;;;;;;;;8359786;28;20044;-72
2023/04/15 04:06:39;;;;;;;4.75;2.03;;;;;;;;;;8342322;28;20016;-73
2023/04/15 04:10:40;;;;;;;3.53;1.70;;;;;;;;;;8361628;28;20377;-72
2023/04/15 04:14:40;;;;;;;3.15;1.73;;;;;;;;;;8361325;28;20020;-73
2023/04/15 04:18:40;;;;;;;4.95;1.70;;;;;;;;;;8361594;28;20038;-72
2023/04/15 04:22:40;;;;;;;4.13;2.20;;;;;;;;;;8359478;28;20468;-73
2023/04/15 04:26:40;;;;;;;4.65;1.80;;;;;;;;;;8362113;28;20020;-72
2023/04/15 04:30:40;;;;;;;2.35;1.60;;;;;;;;;;8364918;28;20032;-72
2023/04/15 04:34:41;;;;;;;5.72;2.15;;;;;;;;;;8366640;28;20028;-73
2023/04/15 04:38:41;;;;;;;3.70;1.90;;;;;;;;;;8363837;28;20484;-72
2023/04/15 04:42:41;;;;;;;2.78;1.75;;;;;;;;;;8349509;28;20223;-72
2023/04/15 04:46:41;;;;;;;5.45;2.10;;;;;;;;;;8345999;28;20032;-72
2023/04/15 04:50:41;;;;;;;5.40;2.25;;;;;;;;;;8365562;28;20036;-72
2023/04/15 04:54:42;;;;;;;3.30;1.80;;;;;;;;;;8345687;28;20020;-72
2023/04/15 04:58:42;;;;;;;2.85;1.95;;;;;;;;;;8366448;28;20263;-72
2023/04/15 05:02:42;;;;;;;3.50;2.38;;;;;;;;;;8367164;28;20051;-71
2023/04/15 05:06:43;;;;;;;5.05;2.40;;;;;;;;;;8369719;28;20020;-72
2023/04/15 05:10:43;;;;;;;7.00;2.05;;;;;;;;;;8389353;28;20027;-72
2023/04/15 05:14:43;;;;;;;5.13;2.15;;;;;;;;;;8386873;28;20036;-72
2023/04/15 05:18:43;;;;;;;4.60;2.38;;;;;;;;;;8407343;28;20056;-72
2023/04/15 05:22:43;;;;;;;4.35;2.22;;;;;;;;;;8408494;28;20024;-72
2023/04/15 05:26:44;;;;;;;5.70;2.70;;;;;;;;;;8408584;28;20028;-72
2023/04/15 05:30:44;;;;;;;6.03;2.53;;;;;;;;;;8409710;28;20130;-72
2023/04/15 05:34:44;;;;;;;5.18;2.45;;;;;;;;;;8390989;28;20543;-72
2023/04/15 05:38:44;;;;;;;5.53;2.67;;;;;;;;;;8409929;28;20324;-72
2023/04/15 05:42:45;;;;;;;5.05;2.22;;;;;;;;;;8411249;28;20044;-72
2023/04/15 05:46:45;;;;;;;5.40;2.53;;;;;;;;;;8412303;28;20039;-72
2023/04/15 05:50:46;;;;;;;3.97;2.07;;;;;;;;;;8412348;28;20028;-73
2023/04/15 05:54:46;;;;;;;3.15;2.15;;;;;;;;;;8412792;28;20270;-72
2023/04/15 05:58:46;;;;;;;6.30;2.58;;;;;;;;;;8397852;28;20008;-73
2023/04/15 06:02:46;;;;;;;5.32;2.10;;;;;;;;;;8414964;28;20088;-73
2023/04/15 06:06:47;;;;;;;5.30;2.17;;;;;;;;;;8415075;28;20092;-73
2023/04/15 06:10:47;;;;;;;3.03;2.03;;;;;;;;;;8412379;28;20024;-76
2023/04/15 06:14:47;;;;;;;2.20;2.00;;;;;;;;;;8414926;28;20089;-73
2023/04/15 06:18:48;;;;;;;4.82;2.25;;;;;;;;;;8399787;28;20124;-73
2023/04/15 06:22:48;;;;;;;3.80;1.80;;;;;;;;;;8402976;28;20020;-73
2023/04/15 06:26:48;;;;;;;3.38;1.70;;;;;;;;;;8404822;28;20224;-73
2023/04/15 06:30:49;;;;;;;3.47;2.13;;;;;;;;;;8405337;28;20024;-73
2023/04/15 06:34:49;;;;;;;4.43;1.88;;;;;;;;;;8423288;28;20080;-73
2023/04/15 06:38:49;;;;;;;3.08;2.10;;;;;;;;;;8405720;28;20016;-74
2023/04/15 06:42:50;;;;;;;7.15;2.55;;;;;;;;;;8419787;28;20016;-73
2023/04/15 06:46:50;;;;;;;3.87;2.17;;;;;;;;;;8421961;28;20050;-72
2023/04/15 06:50:50;;;;;;;4.93;1.88;;;;;;;;;;8418519;28;20094;-72
2023/04/15 06:54:51;;;;;;;5.18;1.83;;;;;;;;;;8403343;28;20051;-72
2023/04/15 06:58:51;;;;;;;4.18;1.70;;;;;;;;;;8418903;28;20091;-72
2023/04/15 07:02:51;;;;;;;5.68;1.80;;;;;;;;;;8421020;28;20036;-72
2023/04/15 07:06:52;;;;;;;3.93;1.90;;;;;;;;;;8403057;28;20035;-73
2023/04/15 07:10:53;;;;;;;5.13;1.48;;;;;;;;;;8419019;28;20282;-72
2023/04/15 07:14:53;;;;;;;7.97;1.90;;;;;;;;;;8418714;28;20012;-73
2023/04/15 07:18:54;;;;;;;7.33;1.90;;;;;;;;;;8416831;28;20043;-72
2023/04/15 07:22:54;;;;;;;4.07;1.50;;;;;;;;;;8388703;28;20024;-73
2023/04/15 07:26:58;;;;;;;4.57;1.53;;;;;;;;;;8414489;28;20032;-72
2023/04/15 07:30:58;;;;;;;;;;;;;;;;;;8418417;28;20016;-73
2023/04/15 07:34:58;;;;;;;2.08;1.20;;;;;;;;;;8403332;28;19912;-73
2023/04/15 07:39:02;;;;;;;2.72;1.20;;;;;;;;;;8402586;28;20004;-73
2023/04/15 07:43:03;;;;;;;4.45;1.45;;;;;;;;;;8421587;28;20043;-73
2023/04/15 07:47:03;;;;;;;3.45;1.40;;;;;;;;;;8401609;28;20420;-74
2023/04/15 07:51:03;;;;;;;2.65;1.45;;;;;;;;;;8413530;28;20051;-73
2023/04/15 07:55:07;;;;;;;2.25;1.02;;;;;;;;;;8397569;28;20029;-73
2023/04/15 07:59:08;;;;;;;;;;;;;;;;;;8391290;28;20052;-73
2023/04/15 08:03:08;;;;;;;3.83;1.30;;;;;;;;;;8419910;28;20031;-73
2023/04/15 08:07:09;;;;;;;2.33;1.20;;;;;;;;;;8401539;28;20029;-73
2023/04/15 08:11:09;;;;;;;4.75;1.40;;;;;;;;;;8383782;28;20024;-73
2023/04/15 08:15:10;;;;;;;2.72;1.13;;;;;;;;;;8417915;28;20028;-73
2023/04/15 08:19:10;;;;;;;3.43;1.67;;;;;;;;;;8420666;28;20010;-73
2023/04/15 08:23:10;;;;;;;2.85;1.20;;;;;;;;;;8402305;28;20313;-73
2023/04/15 08:27:10;;;;;;;4.50;1.30;;;;;;;;;;8406837;28;20024;-73
2023/04/15 08:31:11;;;;;;;4.87;1.60;;;;;;;;;;8391254;28;20072;-73
2023/04/15 08:35:12;;;;;;;1.75;1.33;;;;;;;;;;8419985;28;20019;-73
2023/04/15 08:39:12;;;;;;;3.15;1.50;;;;;;;;;;8417454;28;20036;-73
2023/04/15 08:43:25;;;;;;;5.60;1.90;;;;;;;;;;8420127;28;20079;-73
2023/04/15 08:47:28;;;;;;;1.88;1.63;;;;;;;;;;8400870;28;20124;-72
2023/04/15 08:51:29;;;;;;;3.63;1.95;;;;;;;;;;8418990;28;20008;-72
2023/04/15 08:55:32;;;;;;;3.35;1.80;;;;;;;;;;8417818;28;20099;-72
2023/04/15 08:59:32;;;;;;;3.50;2.15;;;;;;;;;;8394998;28;20035;-72
2023/04/15 09:03:33;;;;;;;3.42;1.95;;;;;;;;;;8415267;28;20108;-73
2023/04/15 09:07:35;;;;;;;3.72;2.05;;;;;;;;;;8399905;28;20025;-73
2023/04/15 09:11:35;;;;;;;2.97;1.65;;;;;;;;;;8418364;28;20027;-72
2023/04/15 09:15:37;;;;;;;4.43;2.10;;;;;;;;;;8401506;28;20039;-72
2023/04/15 09:19:37;;;;;;;4.47;1.80;;;;;;;;;;8415527;28;20601;-72
2023/04/15 09:23:38;;;;;;;3.60;1.70;;;;;;;;;;8418124;28;20138;-73
2023/04/15 09:27:46;;;;;;;3.78;1.80;;;;;;;;;;8412751;28;20534;-73
2023/04/15 09:31:47;;;;;;;3.33;1.50;;;;;;;;;;8414796;28;20041;-73
2023/04/15 09:35:57;;;;;;;3.55;1.83;;;;;;;;;;8384276;28;20028;-74
2023/04/15 09:39:58;;;;;;;2.05;1.70;;;;;;;;;;8374804;28;20040;-73
2023/04/15 09:43:58;;;;;;;3.10;1.52;;;;;;;;;;8394311;28;20004;-72
2023/04/15 09:47:59;;;;;;;4.40;1.48;;;;;;;;;;8409891;28;20040;-73
2023/04/15 09:52:00;;;;;;;2.42;1.30;;;;;;;;;;8399131;28;20053;-74
2023/04/15 09:56:01;;;;;;;3.33;1.30;;;;;;;;;;8415399;28;20020;-73
2023/04/15 10:00:02;;;;;;;3.30;1.45;;;;;;;;;;8404645;28;20057;-74
2023/04/15 10:04:03;;;;;;;3.75;1.40;;;;;;;;;;8424499;28;20025;-73
2023/04/15 10:08:03;;;;;;;3.78;1.90;;;;;;;;;;8400793;28;20135;-73
2023/04/15 10:12:04;;;;;;;3.22;1.80;;;;;;;;;;8394535;28;20020;-73
2023/04/15 10:16:06;;;;;;;2.58;1.60;;;;;;;;;;8406753;28;20045;-74
2023/04/15 10:20:08;;;;;;;3.85;1.92;;;;;;;;;;8413580;28;20053;-73
2023/04/15 10:24:08;;;;;;;3.55;1.70;;;;;;;;;;8410706;28;20032;-73
2023/04/15 10:28:08;;;;;;;4.50;1.60;;;;;;;;;;8414865;28;20097;-73
2023/04/15 10:32:10;;;;;;;4.00;1.80;;;;;;;;;;8413290;28;20043;-73
2023/04/15 10:36:12;;;;;;;4.35;2.00;;;;;;;;;;8403949;28;20017;-73
2023/04/15 10:40:38;;;;;;;2.50;1.70;;;;;;;;;;8413358;28;20025;-74
2023/04/15 10:44:40;;;;;;;2.90;1.65;;;;;;;;;;8405597;28;20052;-73
2023/04/15 10:48:46;;;;;;;2.55;1.55;;;;;;;;;;8417484;28;20055;-73
2023/04/15 10:52:49;;;;;;;5.25;1.80;;;;;;;;;;8415503;28;20085;-73
2023/04/15 10:56:58;;;;;;;4.20;1.70;;;;;;;;;;8414127;28;20028;-73
2023/04/15 11:01:01;;;;;;;4.72;1.90;;;;;;;;;;8421377;28;20112;-73
2023/04/15 11:05:02;;;;;;;5.60;2.30;;;;;;;;;;8415575;28;20044;-72
2023/04/15 11:09:08;;;;;;;5.13;2.00;;;;;;;;;;8416840;28;20571;-73
2023/04/15 11:13:08;;;;;;;4.97;2.00;;;;;;;;;;8397786;28;20251;-72
2023/04/15 11:17:08;;;;;;;3.03;1.80;;;;;;;;;;8415173;28;20036;-72
2023/04/15 11:21:09;;;;;;;3.08;1.60;;;;;;;;;;8415532;28;20005;-72
2023/04/15 11:25:09;;;;;;;4.28;1.88;;;;;;;;;;8415788;28;20062;-73
2023/04/15 11:29:16;;;;;;;3.42;1.80;;;;;;;;;;8398303;28;20023;-73
2023/04/15 11:33:16;;;;;;;3.25;1.67;;;;;;;;;;8417034;28;20031;-73
2023/04/15 11:37:16;;;;;;;4.22;1.80;;;;;;;;;;8404996;28;20044;-73
2023/04/15 11:41:23;;;;;;;2.78;1.50;;;;;;;;;;8415963;28;20032;-73
2023/04/15 11:45:23;;;;;;;3.38;1.67;;;;;;;;;;8420510;28;20024;-73
2023/04/15 11:49:30;;;;;;;3.13;1.50;;;;;;;;;;8402569;28;20013;-73
2023/04/15 11:53:43;;;;;;;4.00;1.40;;;;;;;;;;8419894;28;20033;-73
2023/04/15 11:57:45;;;;;;;3.58;1.60;;;;;;;;;;8415947;28;20009;-72
2023/04/15 12:01:46;;;;;;;2.08;1.27;;;;;;;;;;8414069;28;20036;-72
2023/04/15 12:06:05;;;;;;;5.15;1.42;;;;;;;;;;8418856;28;20012;-73
2023/04/15 12:10:07;;;;;;;2.75;1.30;;;;;;;;;;8415476;28;20009;-73
2023/04/15 12:14:09;;;;;;;3.17;1.30;;;;;;;;;;8418633;28;20008;-73
2023/04/15 12:18:16;;;;;;;2.90;1.13;;;;;;;;;;8389007;28;20279;-73
2023/04/15 12:22:16;;;;;;;1.95;1.40;;;;;;;;;;8415362;28;20082;-74
2023/04/15 12:26:17;;;;;;;4.10;1.25;;;;;;;;;;8394883;28;20012;-73
2023/04/15 12:30:17;;;;;;;2.80;1.23;;;;;;;;;;8416485;28;20035;-73
2023/04/15 12:34:28;;;;;;;2.33;1.30;;;;;;;;;;8401233;28;20028;-73
2023/04/15 12:38:28;;;;;;;3.67;1.40;;;;;;;;;;8414504;28;20011;-73
2023/04/15 12:42:29;;;;;;;2.83;1.30;;;;;;;;;;8412910;28;20033;-73
2023/04/15 12:46:29;;;;;;;2.70;1.00;;;;;;;;;;8414720;28;20058;-73
2023/04/15 12:50:29;;;;;;;1.50;0.90;;;;;;;;;;8419240;28;20285;-72
2023/04/15 12:54:30;;;;;;;2.35;0.80;;;;;;;;;;8415151;28;20088;-73
2023/04/15 12:58:30;;;;;;;1.08;0.70;;;;;;;;;;8409828;28;20011;-73
2023/04/15 13:02:31;;;;;;;0.60;0.60;;;;;;;;;;8416410;28;20100;-73
2023/04/15 13:06:32;;;;;;;1.60;0.80;;;;;;;;;;8414426;28;20345;-73
2023/04/15 13:10:35;;;;;;;1.92;0.80;;;;;;;;;;8408748;28;20456;-72
2023/04/15 13:14:35;;;;;;;0.90;0.80;;;;;;;;;;8407056;28;20039;-73
2023/04/15 13:18:35;;;;;;;2.05;0.70;;;;;;;;;;8395687;28;20025;-73
2023/04/15 13:22:36;;;;;;;0.63;0.63;;;;;;;;;;8401401;28;20021;-73
2023/04/15 13:26:36;;;;;;;1.10;0.80;;;;;;;;;;8397879;28;20034;-73
2023/04/15 13:30:37;;;;;;;1.48;0.70;;;;;;;;;;8410438;28;20036;-73
2023/04/15 13:34:37;;;;;;;1.05;0.80;;;;;;;;;;8405702;28;20086;-73
2023/04/15 13:38:37;;;;;;;0.77;0.70;;;;;;;;;;8405809;28;20023;-73
2023/04/15 13:42:53;;;;;;;1.27;0.83;;;;;;;;;;8421460;28;20112;-73
2023/04/15 13:46:53;;;;;;;0.82;0.70;;;;;;;;;;8415686;28;20090;-73
2023/04/15 13:50:53;;;;;;;1.35;0.80;;;;;;;;;;8410765;28;20024;-73
2023/04/15 13:54:54;;;;;;;2.00;0.70;;;;;;;;;;8425851;28;20020;-73
2023/04/15 13:58:57;;;;;;;2.00;0.65;;;;;;;;;;8419724;28;20028;-73
2023/04/15 14:02:57;;;;;;;;;;;;;;;;;;8421363;28;20492;-73
2023/04/15 14:06:58;;;;;;;1.10;0.60;;;;;;;;;;8417001;28;19947;-73
2023/04/15 14:10:58;;;;;;;1.83;0.70;;;;;;;;;;8403347;28;20039;-73
2023/04/15 14:14:58;;;;;;;0.60;0.60;;;;;;;;;;8420562;28;20020;-73
2023/04/15 14:18:58;;;;;;;0.95;0.70;;;;;;;;;;8416366;28;20028;-73
2023/04/15 14:22:59;;;;;;;0.73;0.50;;;;;;;;;;8412702;28;20032;-73
2023/04/15 14:27:00;;;;;;;0.70;0.70;;;;;;;;;;8399549;28;20032;-73
2023/04/15 14:31:01;;;;;;;0.50;0.50;;;;;;;;;;8414974;28;20035;-73
2023/04/15 14:35:03;;;;;;;0.60;0.60;;;;;;;;;;8425230;28;20092;-73
2023/04/15 14:39:03;;;;;;;0.57;0.57;;;;;;;;;;8422435;28;20038;-73
2023/04/15 14:43:03;;;;;;;0.70;0.70;;;;;;;;;;8419191;28;20028;-73
2023/04/15 14:47:04;;;;;;;0.80;0.60;;;;;;;;;;8423513;28;20080;-74
2023/04/15 14:51:05;;;;;;;1.83;0.77;;;;;;;;;;8396888;28;20056;-74
2023/04/15 14:55:05;;;;;;;2.10;0.70;;;;;;;;;;8418749;28;20036;-73
2023/04/15 14:59:06;;;;;;;0.50;0.50;;;;;;;;;;8417601;28;20312;-73
2023/04/15 15:03:11;;;;;;;0.70;0.70;;;;;;;;;;8413009;28;20941;-73
2023/04/15 15:07:11;;;;;;;1.17;0.63;;;;;;;;;;8417980;28;20013;-73
2023/04/15 15:11:11;;;;;;;0.93;0.73;;;;;;;;;;8414334;28;20020;-73
2023/04/15 15:15:12;;;;;;;0.60;0.60;;;;;;;;;;8387431;28;20209;-73
2023/04/15 15:19:12;;;;;;;0.40;0.40;;;;;;;;;;8403581;28;20953;-72
2023/04/15 15:23:12;;;;;;;0.70;0.70;;;;;;;;;;8403909;28;20036;-73
2023/04/15 15:27:12;;;;;;;1.20;0.60;;;;;;;;;;8411736;28;20104;-73
2023/04/15 15:31:13;;;;;;;0.77;0.77;;;;;;;;;;8401764;28;20044;-73
2023/04/15 15:35:13;;;;;;;0.80;0.80;;;;;;;;;;8387816;28;20013;-73
2023/04/15 15:39:13;;;;;;;0.77;0.77;;;;;;;;;;8392033;28;20493;-73
2023/04/15 15:43:13;;;;;;;1.07;1.00;;;;;;;;;;8388293;28;20182;-73
2023/04/15 15:47:14;;;;;;;0.90;0.90;;;;;;;;;;8391795;28;20263;-73
2023/04/15 15:51:14;;;;;;;0.90;0.90;;;;;;;;;;8411701;28;20032;-73
2023/04/15 15:55:14;;;;;;;2.30;1.30;;;;;;;;;;8409511;28;20647;-73
2023/04/15 15:59:15;;;;;;;1.27;1.13;;;;;;;;;;8407296;28;20024;-73
2023/04/15 16:03:15;;;;;;;1.40;1.30;;;;;;;;;;8405841;28;20594;-73
2023/04/15 16:07:15;;;;;;;2.55;1.20;;;;;;;;;;8386288;28;20064;-73
2023/04/15 16:11:15;;;;;;;1.50;1.40;;;;;;;;;;8389331;28;20024;-73
2023/04/15 16:15:15;;;;;;;1.75;1.65;;;;;;;;;;8399887;28;20047;-73
2023/04/15 16:19:16;;;;;;;1.63;1.52;;;;;;;;;;8391717;28;20342;-72
2023/04/15 16:23:16;;;;;;;1.20;1.20;;;;;;;;;;8416039;28;20286;-72
2023/04/15 16:27:16;;;;;;;1.60;1.30;;;;;;;;;;8395870;28;20021;-72
2023/04/15 16:31:16;;;;;;;1.70;1.60;;;;;;;;;;8409037;28;20098;-73
2023/04/15 16:35:17;;;;;;;1.67;1.50;;;;;;;;;;8395683;28;20066;-72
2023/04/15 16:39:18;;;;;;;1.63;1.52;;;;;;;;;;8417253;28;20033;-73
2023/04/15 16:43:19;;;;;;;1.63;1.52;;;;;;;;;;8397167;28;20020;-72
2023/04/15 16:47:19;;;;;;;1.60;1.50;;;;;;;;;;8419868;28;20052;-73
2023/04/15 16:51:19;;;;;;;1.60;1.50;;;;;;;;;;8421479;28;20076;-73
2023/04/15 16:55:19;;;;;;;1.58;1.48;;;;;;;;;;8402782;28;20048;-73
2023/04/15 16:59:20;;;;;;;2.15;1.50;;;;;;;;;;8400754;28;20028;-73
2023/04/15 17:03:20;;;;;;;3.17;1.70;;;;;;;;;;8410834;28;20037;-73
2023/04/15 17:07:20;;;;;;;1.63;1.52;;;;;;;;;;8417581;28;20029;-72
2023/04/15 17:11:22;;;;;;;1.50;1.40;;;;;;;;;;8395735;28;20469;-72
2023/04/15 17:15:22;;;;;;;2.10;1.90;;;;;;;;;;8416412;28;21628;-72
2023/04/15 17:19:22;;;;;;;1.90;1.80;;;;;;;;;;8416857;28;20258;-72
2023/04/15 17:23:24;;;;;;;2.22;2.10;;;;;;;;;;8402009;28;20099;-73
2023/04/15 17:27:26;;;;;;;2.22;2.00;;;;;;;;;;8400025;28;20024;-72
2023/04/15 17:31:28;;;;;;;2.72;2.20;;;;;;;;;;8406776;28;20036;-72
2023/04/15 17:35:28;;;;;;;2.22;2.13;;;;;;;;;;8414362;28;20506;-72
2023/04/15 17:39:28;;;;;;;2.20;2.00;;;;;;;;;;8398943;28;20032;-71
2023/04/15 17:43:28;;;;;;;2.67;2.08;;;;;;;;;;8391221;28;20021;-73
2023/04/15 17:47:29;;;;;;;1.90;1.80;;;;;;;;;;8409076;28;20044;-73
2023/04/15 17:51:30;;;;;;;1.92;1.83;;;;;;;;;;8385599;28;20031;-72
2023/04/15 17:55:33;;;;;;;2.30;2.00;;;;;;;;;;8400079;28;20028;-73
2023/04/15 17:59:33;;;;;;;2.00;1.90;;;;;;;;;;8399882;28;20005;-73
2023/04/15 18:03:34;;;;;;;1.98;1.88;;;;;;;;;;8373428;28;20088;-73
2023/04/15 18:07:34;;;;;;;2.30;2.08;;;;;;;;;;8404472;28;20361;-73
2023/04/15 18:11:35;;;;;;;2.78;2.58;;;;;;;;;;8384895;28;20361;-73
2023/04/15 18:15:35;;;;;;;2.72;2.53;;;;;;;;;;8407843;28;20043;-73
2023/04/15 18:19:35;;;;;;;2.70;2.50;;;;;;;;;;8410393;28;20054;-73
2023/04/15 18:23:36;;;;;;;2.80;2.60;;;;;;;;;;8411310;28;20024;-73
2023/04/15 18:27:39;;;;;;;3.00;2.80;;;;;;;;;;8408240;28;20019;-73
2023/04/15 18:31:40;;;;;;;4.33;3.40;;;;;;;;;;8396177;28;20028;-73
2023/04/15 18:35:41;;;;;;;2.92;2.72;;;;;;;;;;8414588;28;20028;-73
2023/04/15 18:39:42;;;;;;;3.40;3.10;;;;;;;;;;8397659;28;20032;-73
2023/04/15 18:43:42;;;;;;;4.35;3.95;;;;;;;;;;8410592;28;20028;-73
2023/04/15 18:47:42;;;;;;;3.90;3.60;;;;;;;;;;8408903;28;20043;-73
2023/04/15 18:51:42;;;;;;;4.00;3.60;;;;;;;;;;8394919;28;20024;-73
2023/04/15 18:55:42;;;;;;;4.65;4.25;;;;;;;;;;8411219;28;20135;-73
2023/04/15 18:59:43;;;;;;;3.88;3.55;;;;;;;;;;8396823;28;20039;-73
2023/04/15 19:03:43;;;;;;;4.63;4.18;;;;;;;;;;8409653;28;20041;-73
2023/04/15 19:07:43;;;;;;;4.40;4.00;;;;;;;;;;8412037;28;20608;-72
2023/04/15 19:11:43;;;;;;;4.87;4.10;;;;;;;;;;8390255;28;21023;-73
2023/04/15 19:15:45;;;;;;;6.40;4.30;;;;;;;;;;8402602;28;20275;-74
2023/04/15 19:19:45;;;;;;;4.65;3.95;;;;;;;;;;8400714;28;20073;-73
2023/04/15 19:23:46;;;;;;;4.10;3.70;;;;;;;;;;8388093;28;20040;-74
2023/04/15 19:27:47;;;;;;;5.05;4.45;;;;;;;;;;8395948;28;20111;-74
2023/04/15 19:31:47;;;;;;;4.38;3.97;;;;;;;;;;8404053;28;20520;-73
2023/04/15 19:35:48;;;;;;;4.43;4.03;;;;;;;;;;8410306;28;20016;-73
2023/04/15 19:39:49;;;;;;;4.72;4.32;;;;;;;;;;8402024;28;20024;-73
2023/04/15 19:43:50;;;;;;;4.75;4.28;;;;;;;;;;8385113;28;20044;-73
2023/04/15 19:47:51;;;;;;;4.17;3.73;;;;;;;;;;8416854;28;20079;-74
2023/04/15 19:51:54;;;;;;;4.05;3.67;;;;;;;;;;8401447;28;20317;-73
2023/04/15 19:55:55;;;;;;;4.40;4.00;;;;;;;;;;8406029;28;20032;-74
2023/04/15 19:59:55;;;;;;;3.42;3.13;;;;;;;;;;8420668;28;20035;-74
2023/04/15 20:03:55;;;;;;;3.90;3.50;;;;;;;;;;8412444;28;20040;-73
2023/04/15 20:07:55;;;;;;;3.60;3.30;;;;;;;;;;8412301;28;20028;-73
2023/04/15 20:11:56;;;;;;;3.33;3.03;;;;;;;;;;8415270;28;20354;-74
2023/04/15 20:15:56;;;;;;;3.40;3.10;;;;;;;;;;8409940;28;20047;-74
2023/04/15 20:19:56;;;;;;;3.72;3.42;;;;;;;;;;8410013;28;20566;-73
2023/04/15 20:23:56;;;;;;;3.53;2.65;;;;;;;;;;8415571;28;20038;-73
2023/04/15 20:27:57;;;;;;;3.13;2.83;;;;;;;;;;8390202;28;20033;-74
2023/04/15 20:31:58;;;;;;;3.63;2.95;;;;;;;;;;8410173;28;20070;-73
2023/04/15 20:35:58;;;;;;;3.53;3.03;;;;;;;;;;8393678;28;20044;-72
2023/04/15 20:39:59;;;;;;;3.88;3.10;;;;;;;;;;8380708;28;20189;-72
2023/04/15 20:43:59;;;;;;;3.53;3.22;;;;;;;;;;8392913;28;20032;-72
2023/04/15 20:47:59;;;;;;;3.42;3.13;;;;;;;;;;8392648;28;20044;-73
2023/04/15 20:52:00;;;;;;;3.40;3.05;;;;;;;;;;8394814;28;20032;-72
2023/04/15 20:56:00;;;;;;;4.07;3.20;;;;;;;;;;8393450;28;20029;-73
2023/04/15 21:00:03;;;;;;;3.17;2.90;;;;;;;;;;8400387;28;20063;-72
2023/04/15 21:04:04;;;;;;;3.23;2.93;;;;;;;;;;8395506;28;20032;-72
2023/04/15 21:08:04;;;;;;;3.42;3.03;;;;;;;;;;8391910;28;20046;-72
2023/04/15 21:12:04;;;;;;;4.10;3.10;;;;;;;;;;8398198;28;20044;-72
2023/04/15 21:16:05;;;;;;;3.30;3.07;;;;;;;;;;8378660;28;20035;-73
2023/04/15 21:20:05;;;;;;;4.15;3.60;;;;;;;;;;8405216;28;20279;-73
2023/04/15 21:24:06;;;;;;;3.50;3.20;;;;;;;;;;8390437;28;20027;-72
2023/04/15 21:28:06;;;;;;;3.70;3.40;;;;;;;;;;8382668;28;20439;-73
2023/04/15 21:32:07;;;;;;;3.40;3.10;;;;;;;;;;8411174;28;20048;-73
2023/04/15 21:36:08;;;;;;;3.65;3.35;;;;;;;;;;8404790;28;20036;-72
2023/04/15 21:40:08;;;;;;;4.10;3.70;;;;;;;;;;8397907;28;20017;-72
2023/04/15 21:44:09;;;;;;;4.00;3.60;;;;;;;;;;8409042;28;20032;-72
2023/04/15 21:48:09;;;;;;;4.28;3.88;;;;;;;;;;8391908;28;20045;-72
2023/04/15 21:52:10;;;;;;;4.88;4.45;;;;;;;;;;8389300;28;20025;-72
2023/04/15 21:56:10;;;;;;;5.15;4.65;;;;;;;;;;8413977;28;20024;-73
2023/04/15 22:00:14;;;;;;;6.15;4.78;;;;;;;;;;8411960;28;20233;-73
2023/04/15 22:04:14;;;;;;;5.87;5.30;;;;;;;;;;8396578;28;20033;-72
2023/04/15 22:08:14;;;;;;;5.37;4.70;;;;;;;;;;8398007;28;20027;-72
2023/04/15 22:12:15;;;;;;;5.47;4.97;;;;;;;;;;8406883;28;20273;-72
2023/04/15 22:16:15;;;;;;;5.40;4.90;;;;;;;;;;8409411;28;20067;-72
2023/04/15 22:20:15;;;;;;;5.93;5.33;;;;;;;;;;8405549;28;20344;-72
2023/04/15 22:24:16;;;;;;;6.05;5.45;;;;;;;;;;8382679;28;20275;-72
2023/04/15 22:28:16;;;;;;;8.93;6.10;;;;;;;;;;8401362;28;20139;-72
2023/04/15 22:32:16;;;;;;;6.93;5.70;;;;;;;;;;8399397;28;20066;-72
2023/04/15 22:36:16;;;;;;;6.37;5.77;;;;;;;;;;8411960;28;20251;-72
2023/04/15 22:40:17;;;;;;;5.97;5.38;;;;;;;;;;8406354;28;20919;-72
2023/04/15 22:44:17;;;;;;;6.50;5.80;;;;;;;;;;8396443;28;20055;-72
2023/04/15 22:48:17;;;;;;;6.93;6.20;;;;;;;;;;8395460;28;20047;-72
2023/04/15 22:52:19;;;;;;;7.15;5.80;;;;;;;;;;8395102;28;20028;-72
2023/04/15 22:56:23;;;;;;;8.52;7.70;;;;;;;;;;8396272;28;20020;-73
2023/04/15 23:00:23;;;;;;;8.13;7.32;;;;;;;;;;8353791;28;20036;-73
2023/04/15 23:04:23;;;;;;;9.43;7.85;;;;;;;;;;8387339;28;20147;-73
2023/04/15 23:08:24;;;;;;;9.77;8.75;;;;;;;;;;8389275;28;20024;-73
2023/04/15 23:12:24;;;;;;;9.10;7.75;;;;;;;;;;8395391;28;20058;-73
2023/04/15 23:16:24;;;;;;;8.88;7.53;;;;;;;;;;8375179;28;20501;-72
2023/04/15 23:20:25;;;;;;;9.80;7.97;;;;;;;;;;8394756;28;20711;-73
2023/04/15 23:24:25;;;;;;;8.73;7.68;;;;;;;;;;8407289;28;20267;-72
2023/04/15 23:28:25;;;;;;;8.77;7.35;;;;;;;;;;8390979;28;20029;-72
2023/04/15 23:32:26;;;;;;;9.97;7.93;;;;;;;;;;8369935;28;20128;-73
2023/04/15 23:36:26;;;;;;;8.93;7.80;;;;;;;;;;8371465;28;20274;-72
2023/04/15 23:40:26;;;;;;;7.93;7.05;;;;;;;;;;8393222;28;20032;-72
2023/04/15 23:44:26;;;;;;;9.15;7.15;;;;;;;;;;8390352;28;20028;-73
2023/04/15 23:48:28;;;;;;;8.30;7.40;;;;;;;;;;8386574;28;20070;-72
2023/04/15 23:52:29;;;;;;;7.75;6.93;;;;;;;;;;8389584;28;20032;-72
2023/04/15 23:56:29;;;;;;;7.80;6.93;;;;;;;;;;8386965;28;20032;-72
